sensor_id;sensor_type;location;lat;lon;timestamp;P1;durP1;ratioP1;P2;durP2;ratioP2
59960;SDS011;55902;-37.980;-63.602;2023-11-21T00:01:04;5.05;;;1.48;;
59960;SDS011;55902;-37.980;-63.602;2023-11-21T00:03:34;6.70;;;1.55;;
59960;SDS011;55902;-37.980;-63.602;2023-11-21T00:06:01;3.38;;;1.20;;
59960;SDS011;55902;-37.980;-63.602;2023-11-21T00:08:28;4.43;;;1.10;;
59960;SDS011;55902;-37.980;-63.602;2023-11-21T00:10:55;5.97;;;1.05;;
59960;SDS011;55902;-37.980;-63.602;2023-11-21T00:13:22;5.28;;;1.00;;
59960;SDS011;55902;-37.980;-63.602;2023-11-21T00:15:49;4.75;;;1.00;;
59960;SDS011;55902;-37.980;-63.602;2023-11-21T00:18:20;3.70;;;1.20;;
59960;SDS011;55902;-37.980;-63.602;2023-11-21T00:20:47;4.57;;;1.00;;
59960;SDS011;55902;-37.980;-63.602;2023-11-21T00:23:14;2.78;;;0.85;;
59960;SDS011;55902;-37.980;-63.602;2023-11-21T00:25:41;2.63;;;0.82;;
59960;SDS011;55902;-37.980;-63.602;2023-11-21T00:28:09;2.95;;;0.90;;
59960;SDS011;55902;-37.980;-63.602;2023-11-21T00:30:36;2.45;;;0.90;;
59960;SDS011;55902;-37.980;-63.602;2023-11-21T00:33:03;5.07;;;1.38;;
59960;SDS011;55902;-37.980;-63.602;2023-11-21T00:35:30;3.58;;;1.40;;
59960;SDS011;55902;-37.980;-63.602;2023-11-21T00:37:57;5.15;;;2.15;;
59960;SDS011;55902;-37.980;-63.602;2023-11-21T00:40:24;5.20;;;2.10;;
59960;SDS011;55902;-37.980;-63.602;2023-11-21T00:42:51;5.20;;;1.60;;
59960;SDS011;55902;-37.980;-63.602;2023-11-21T00:45:18;6.13;;;1.25;;
59960;SDS011;55902;-37.980;-63.602;2023-11-21T00:47:45;6.72;;;1.52;;
59960;SDS011;55902;-37.980;-63.602;2023-11-21T00:50:12;5.85;;;1.10;;
59960;SDS011;55902;-37.980;-63.602;2023-11-21T00:52:39;3.80;;;0.90;;
59960;SDS011;55902;-37.980;-63.602;2023-11-21T00:55:06;5.97;;;0.85;;
59960;SDS011;55902;-37.980;-63.602;2023-11-21T00:57:34;3.08;;;0.73;;
59960;SDS011;55902;-37.980;-63.602;2023-11-21T01:00:02;1.55;;;0.75;;
59960;SDS011;55902;-37.980;-63.602;2023-11-21T01:02:38;7.97;;;1.10;;
59960;SDS011;55902;-37.980;-63.602;2023-11-21T01:05:05;7.55;;;0.98;;
59960;SDS011;55902;-37.980;-63.602;2023-11-21T01:07:33;2.47;;;0.90;;
59960;SDS011;55902;-37.980;-63.602;2023-11-21T01:10:02;10.52;;;1.02;;
59960;SDS011;55902;-37.980;-63.602;2023-11-21T01:12:34;7.30;;;1.30;;
59960;SDS011;55902;-37.980;-63.602;2023-11-21T01:15:03;5.32;;;1.35;;
59960;SDS011;55902;-37.980;-63.602;2023-11-21T01:17:33;4.43;;;1.10;;
59960;SDS011;55902;-37.980;-63.602;2023-11-21T01:20:01;3.03;;;1.20;;
59960;SDS011;55902;-37.980;-63.602;2023-11-21T01:22:31;4.82;;;1.35;;
59960;SDS011;55902;-37.980;-63.602;2023-11-21T01:24:58;4.72;;;1.40;;
59960;SDS011;55902;-37.980;-63.602;2023-11-21T01:27:25;10.60;;;1.77;;
59960;SDS011;55902;-37.980;-63.602;2023-11-21T01:29:52;6.63;;;1.55;;
59960;SDS011;55902;-37.980;-63.602;2023-11-21T01:32:19;5.88;;;1.45;;
59960;SDS011;55902;-37.980;-63.602;2023-11-21T01:34:47;5.57;;;1.20;;
59960;SDS011;55902;-37.980;-63.602;2023-11-21T01:37:14;6.57;;;1.20;;
59960;SDS011;55902;-37.980;-63.602;2023-11-21T01:39:45;5.15;;;1.17;;
59960;SDS011;55902;-37.980;-63.602;2023-11-21T01:42:12;3.80;;;0.90;;
59960;SDS011;55902;-37.980;-63.602;2023-11-21T01:44:39;3.13;;;0.80;;
59960;SDS011;55902;-37.980;-63.602;2023-11-21T01:47:07;2.72;;;0.98;;
59960;SDS011;55902;-37.980;-63.602;2023-11-21T01:49:36;3.42;;;1.10;;
59960;SDS011;55902;-37.980;-63.602;2023-11-21T01:52:04;4.93;;;1.27;;
59960;SDS011;55902;-37.980;-63.602;2023-11-21T01:54:32;3.95;;;1.10;;
59960;SDS011;55902;-37.980;-63.602;2023-11-21T01:56:59;2.15;;;0.90;;
59960;SDS011;55902;-37.980;-63.602;2023-11-21T01:59:34;1.85;;;0.95;;
59960;SDS011;55902;-37.980;-63.602;2023-11-21T02:02:08;2.92;;;0.80;;
59960;SDS011;55902;-37.980;-63.602;2023-11-21T02:04:35;4.30;;;1.02;;
59960;SDS011;55902;-37.980;-63.602;2023-11-21T02:07:03;4.07;;;0.90;;
59960;SDS011;55902;-37.980;-63.602;2023-11-21T02:09:31;2.60;;;0.90;;
59960;SDS011;55902;-37.980;-63.602;2023-11-21T02:12:04;1.85;;;0.82;;
59960;SDS011;55902;-37.980;-63.602;2023-11-21T02:14:31;1.95;;;0.90;;
59960;SDS011;55902;-37.980;-63.602;2023-11-21T02:16:58;2.22;;;0.80;;
59960;SDS011;55902;-37.980;-63.602;2023-11-21T02:19:29;2.17;;;0.70;;
59960;SDS011;55902;-37.980;-63.602;2023-11-21T02:21:57;4.57;;;0.85;;
59960;SDS011;55902;-37.980;-63.602;2023-11-21T02:24:28;3.05;;;0.90;;
59960;SDS011;55902;-37.980;-63.602;2023-11-21T02:26:56;2.72;;;0.77;;
59960;SDS011;55902;-37.980;-63.602;2023-11-21T02:29:23;1.73;;;0.90;;
59960;SDS011;55902;-37.980;-63.602;2023-11-21T02:31:56;2.78;;;1.00;;
59960;SDS011;55902;-37.980;-63.602;2023-11-21T02:34:23;2.65;;;0.90;;
59960;SDS011;55902;-37.980;-63.602;2023-11-21T02:36:50;2.20;;;0.90;;
59960;SDS011;55902;-37.980;-63.602;2023-11-21T02:39:17;2.60;;;0.73;;
59960;SDS011;55902;-37.980;-63.602;2023-11-21T02:41:48;2.67;;;0.82;;
59960;SDS011;55902;-37.980;-63.602;2023-11-21T02:44:15;1.95;;;0.70;;
59960;SDS011;55902;-37.980;-63.602;2023-11-21T02:46:42;4.38;;;1.25;;
59960;SDS011;55902;-37.980;-63.602;2023-11-21T02:49:09;3.45;;;0.95;;
59960;SDS011;55902;-37.980;-63.602;2023-11-21T02:51:37;2.33;;;0.85;;
59960;SDS011;55902;-37.980;-63.602;2023-11-21T02:54:05;1.48;;;0.70;;
59960;SDS011;55902;-37.980;-63.602;2023-11-21T02:56:33;4.00;;;0.88;;
59960;SDS011;55902;-37.980;-63.602;2023-11-21T02:59:00;4.22;;;0.93;;
59960;SDS011;55902;-37.980;-63.602;2023-11-21T03:01:27;2.67;;;0.82;;
59960;SDS011;55902;-37.980;-63.602;2023-11-21T03:03:56;2.50;;;0.80;;
59960;SDS011;55902;-37.980;-63.602;2023-11-21T03:06:23;2.88;;;0.90;;
59960;SDS011;55902;-37.980;-63.602;2023-11-21T03:08:50;1.98;;;0.80;;
59960;SDS011;55902;-37.980;-63.602;2023-11-21T03:11:17;4.88;;;0.93;;
59960;SDS011;55902;-37.980;-63.602;2023-11-21T03:13:44;2.45;;;0.80;;
59960;SDS011;55902;-37.980;-63.602;2023-11-21T03:16:11;2.88;;;1.00;;
59960;SDS011;55902;-37.980;-63.602;2023-11-21T03:18:39;2.78;;;1.05;;
59960;SDS011;55902;-37.980;-63.602;2023-11-21T03:21:06;3.38;;;0.80;;
59960;SDS011;55902;-37.980;-63.602;2023-11-21T03:23:34;2.83;;;1.00;;
59960;SDS011;55902;-37.980;-63.602;2023-11-21T03:26:02;3.88;;;1.23;;
59960;SDS011;55902;-37.980;-63.602;2023-11-21T03:28:29;3.78;;;1.20;;
59960;SDS011;55902;-37.980;-63.602;2023-11-21T03:30:56;2.72;;;1.08;;
59960;SDS011;55902;-37.980;-63.602;2023-11-21T03:33:26;2.17;;;0.95;;
59960;SDS011;55902;-37.980;-63.602;2023-11-21T03:36:06;2.35;;;0.80;;
59960;SDS011;55902;-37.980;-63.602;2023-11-21T03:38:33;2.17;;;0.90;;
59960;SDS011;55902;-37.980;-63.602;2023-11-21T03:41:00;3.75;;;0.90;;
59960;SDS011;55902;-37.980;-63.602;2023-11-21T03:43:27;4.55;;;1.13;;
59960;SDS011;55902;-37.980;-63.602;2023-11-21T03:45:55;4.13;;;1.00;;
59960;SDS011;55902;-37.980;-63.602;2023-11-21T03:48:22;2.35;;;0.80;;
59960;SDS011;55902;-37.980;-63.602;2023-11-21T03:50:49;5.75;;;0.93;;
59960;SDS011;55902;-37.980;-63.602;2023-11-21T03:53:44;5.38;;;0.95;;
59960;SDS011;55902;-37.980;-63.602;2023-11-21T03:56:11;4.63;;;1.00;;
59960;SDS011;55902;-37.980;-63.602;2023-11-21T03:58:44;2.95;;;0.93;;
59960;SDS011;55902;-37.980;-63.602;2023-11-21T04:01:26;4.85;;;1.20;;
59960;SDS011;55902;-37.980;-63.602;2023-11-21T04:04:19;2.47;;;0.90;;
59960;SDS011;55902;-37.980;-63.602;2023-11-21T04:06:46;2.40;;;0.85;;
59960;SDS011;55902;-37.980;-63.602;2023-11-21T04:09:18;5.05;;;0.98;;
59960;SDS011;55902;-37.980;-63.602;2023-11-21T04:12:01;2.97;;;0.90;;
59960;SDS011;55902;-37.980;-63.602;2023-11-21T04:14:29;4.15;;;0.95;;
59960;SDS011;55902;-37.980;-63.602;2023-11-21T04:16:56;1.80;;;0.80;;
59960;SDS011;55902;-37.980;-63.602;2023-11-21T04:22:13;3.28;;;0.98;;
59960;SDS011;55902;-37.980;-63.602;2023-11-21T04:24:40;1.98;;;0.80;;
59960;SDS011;55902;-37.980;-63.602;2023-11-21T04:27:07;2.97;;;1.00;;
59960;SDS011;55902;-37.980;-63.602;2023-11-21T04:29:38;3.78;;;1.05;;
59960;SDS011;55902;-37.980;-63.602;2023-11-21T04:37:50;5.38;;;1.00;;
59960;SDS011;55902;-37.980;-63.602;2023-11-21T04:40:17;5.32;;;1.08;;
59960;SDS011;55902;-37.980;-63.602;2023-11-21T04:42:47;2.20;;;0.90;;
59960;SDS011;55902;-37.980;-63.602;2023-11-21T04:45:14;3.08;;;0.90;;
59960;SDS011;55902;-37.980;-63.602;2023-11-21T04:47:42;2.88;;;0.90;;
59960;SDS011;55902;-37.980;-63.602;2023-11-21T04:53:26;3.80;;;0.90;;
59960;SDS011;55902;-37.980;-63.602;2023-11-21T04:55:57;2.65;;;0.90;;
59960;SDS011;55902;-37.980;-63.602;2023-11-21T04:58:42;6.85;;;1.27;;
59960;SDS011;55902;-37.980;-63.602;2023-11-21T05:01:30;4.30;;;1.00;;
59960;SDS011;55902;-37.980;-63.602;2023-11-21T05:03:57;4.03;;;1.10;;
59960;SDS011;55902;-37.980;-63.602;2023-11-21T05:06:24;5.88;;;1.30;;
59960;SDS011;55902;-37.980;-63.602;2023-11-21T05:08:57;2.50;;;1.00;;
59960;SDS011;55902;-37.980;-63.602;2023-11-21T05:11:37;4.10;;;0.98;;
59960;SDS011;55902;-37.980;-63.602;2023-11-21T05:14:06;3.05;;;1.00;;
59960;SDS011;55902;-37.980;-63.602;2023-11-21T05:16:34;3.15;;;1.08;;
59960;SDS011;55902;-37.980;-63.602;2023-11-21T05:19:01;2.00;;;0.90;;
59960;SDS011;55902;-37.980;-63.602;2023-11-21T05:21:29;4.22;;;1.20;;
59960;SDS011;55902;-37.980;-63.602;2023-11-21T05:24:03;4.00;;;1.20;;
59960;SDS011;55902;-37.980;-63.602;2023-11-21T05:26:30;1.70;;;1.05;;
59960;SDS011;55902;-37.980;-63.602;2023-11-21T05:29:03;3.83;;;1.20;;
59960;SDS011;55902;-37.980;-63.602;2023-11-21T05:31:30;2.33;;;1.20;;
59960;SDS011;55902;-37.980;-63.602;2023-11-21T05:33:57;3.25;;;1.00;;
59960;SDS011;55902;-37.980;-63.602;2023-11-21T05:36:24;2.85;;;0.90;;
59960;SDS011;55902;-37.980;-63.602;2023-11-21T05:38:51;3.47;;;1.20;;
59960;SDS011;55902;-37.980;-63.602;2023-11-21T05:41:18;1.83;;;1.00;;
59960;SDS011;55902;-37.980;-63.602;2023-11-21T05:43:45;4.13;;;1.00;;
59960;SDS011;55902;-37.980;-63.602;2023-11-21T05:46:12;1.92;;;1.00;;
59960;SDS011;55902;-37.980;-63.602;2023-11-21T05:48:45;3.00;;;1.00;;
59960;SDS011;55902;-37.980;-63.602;2023-11-21T05:51:34;3.40;;;1.08;;
59960;SDS011;55902;-37.980;-63.602;2023-11-21T05:54:09;2.53;;;1.20;;
59960;SDS011;55902;-37.980;-63.602;2023-11-21T05:57:00;4.45;;;1.00;;
59960;SDS011;55902;-37.980;-63.602;2023-11-21T05:59:31;3.28;;;1.10;;
59960;SDS011;55902;-37.980;-63.602;2023-11-21T06:01:57;1.83;;;0.90;;
59960;SDS011;55902;-37.980;-63.602;2023-11-21T06:04:24;1.83;;;1.10;;
59960;SDS011;55902;-37.980;-63.602;2023-11-21T06:06:51;2.38;;;1.00;;
59960;SDS011;55902;-37.980;-63.602;2023-11-21T06:09:19;1.73;;;1.00;;
59960;SDS011;55902;-37.980;-63.602;2023-11-21T06:11:46;1.55;;;0.95;;
59960;SDS011;55902;-37.980;-63.602;2023-11-21T06:14:16;3.05;;;1.10;;
59960;SDS011;55902;-37.980;-63.602;2023-11-21T06:16:47;1.75;;;1.00;;
59960;SDS011;55902;-37.980;-63.602;2023-11-21T06:19:21;2.08;;;1.00;;
59960;SDS011;55902;-37.980;-63.602;2023-11-21T06:21:48;2.17;;;1.00;;
59960;SDS011;55902;-37.980;-63.602;2023-11-21T06:24:16;2.03;;;0.95;;
59960;SDS011;55902;-37.980;-63.602;2023-11-21T06:26:42;2.10;;;1.00;;
59960;SDS011;55902;-37.980;-63.602;2023-11-21T06:29:09;2.97;;;1.05;;
59960;SDS011;55902;-37.980;-63.602;2023-11-21T06:31:45;3.72;;;1.10;;
59960;SDS011;55902;-37.980;-63.602;2023-11-21T06:34:20;3.25;;;1.13;;
59960;SDS011;55902;-37.980;-63.602;2023-11-21T06:36:56;1.90;;;1.10;;
59960;SDS011;55902;-37.980;-63.602;2023-11-21T06:39:23;2.15;;;1.00;;
59960;SDS011;55902;-37.980;-63.602;2023-11-21T06:41:53;1.88;;;1.00;;
59960;SDS011;55902;-37.980;-63.602;2023-11-21T06:44:20;2.00;;;1.00;;
59960;SDS011;55902;-37.980;-63.602;2023-11-21T06:46:52;4.43;;;1.20;;
59960;SDS011;55902;-37.980;-63.602;2023-11-21T06:49:43;1.30;;;1.00;;
59960;SDS011;55902;-37.980;-63.602;2023-11-21T06:52:22;1.98;;;1.10;;
59960;SDS011;55902;-37.980;-63.602;2023-11-21T06:54:49;3.22;;;1.15;;
59960;SDS011;55902;-37.980;-63.602;2023-11-21T06:57:16;1.42;;;0.95;;
59960;SDS011;55902;-37.980;-63.602;2023-11-21T06:59:43;2.60;;;1.15;;
59960;SDS011;55902;-37.980;-63.602;2023-11-21T07:05:22;3.13;;;1.10;;
59960;SDS011;55902;-37.980;-63.602;2023-11-21T07:08:20;2.70;;;1.10;;
59960;SDS011;55902;-37.980;-63.602;2023-11-21T07:10:48;2.20;;;1.20;;
59960;SDS011;55902;-37.980;-63.602;2023-11-21T07:13:15;2.20;;;1.27;;
59960;SDS011;55902;-37.980;-63.602;2023-11-21T07:15:42;2.10;;;1.10;;
59960;SDS011;55902;-37.980;-63.602;2023-11-21T07:18:18;2.25;;;1.10;;
59960;SDS011;55902;-37.980;-63.602;2023-11-21T07:20:45;3.30;;;1.10;;
59960;SDS011;55902;-37.980;-63.602;2023-11-21T07:23:17;3.22;;;1.00;;
59960;SDS011;55902;-37.980;-63.602;2023-11-21T07:26:05;3.15;;;1.10;;
59960;SDS011;55902;-37.980;-63.602;2023-11-21T07:28:34;2.50;;;1.10;;
59960;SDS011;55902;-37.980;-63.602;2023-11-21T07:31:01;2.38;;;1.10;;
59960;SDS011;55902;-37.980;-63.602;2023-11-21T07:33:28;2.83;;;1.42;;
59960;SDS011;55902;-37.980;-63.602;2023-11-21T07:35:55;3.50;;;1.20;;
59960;SDS011;55902;-37.980;-63.602;2023-11-21T07:41:44;4.65;;;1.25;;
59960;SDS011;55902;-37.980;-63.602;2023-11-21T07:44:14;1.95;;;1.33;;
59960;SDS011;55902;-37.980;-63.602;2023-11-21T07:46:43;4.43;;;1.23;;
59960;SDS011;55902;-37.980;-63.602;2023-11-21T07:49:10;2.90;;;1.13;;
59960;SDS011;55902;-37.980;-63.602;2023-11-21T07:51:37;3.35;;;1.10;;
59960;SDS011;55902;-37.980;-63.602;2023-11-21T07:58:11;3.00;;;1.20;;
59960;SDS011;55902;-37.980;-63.602;2023-11-21T08:00:39;2.25;;;1.35;;
59960;SDS011;55902;-37.980;-63.602;2023-11-21T08:03:06;2.58;;;1.13;;
59960;SDS011;55902;-37.980;-63.602;2023-11-21T08:05:32;4.90;;;1.40;;
59960;SDS011;55902;-37.980;-63.602;2023-11-21T08:08:02;2.13;;;1.20;;
59960;SDS011;55902;-37.980;-63.602;2023-11-21T08:10:29;2.65;;;1.20;;
59960;SDS011;55902;-37.980;-63.602;2023-11-21T08:12:56;2.22;;;1.10;;
59960;SDS011;55902;-37.980;-63.602;2023-11-21T08:15:23;3.40;;;1.27;;
59960;SDS011;55902;-37.980;-63.602;2023-11-21T08:17:50;2.35;;;1.17;;
59960;SDS011;55902;-37.980;-63.602;2023-11-21T08:20:17;2.88;;;1.42;;
59960;SDS011;55902;-37.980;-63.602;2023-11-21T08:22:44;1.40;;;1.10;;
59960;SDS011;55902;-37.980;-63.602;2023-11-21T08:25:13;3.17;;;1.27;;
59960;SDS011;55902;-37.980;-63.602;2023-11-21T08:27:40;2.47;;;1.20;;
59960;SDS011;55902;-37.980;-63.602;2023-11-21T08:30:07;2.90;;;1.20;;
59960;SDS011;55902;-37.980;-63.602;2023-11-21T08:32:34;3.90;;;1.30;;
59960;SDS011;55902;-37.980;-63.602;2023-11-21T08:35:01;2.47;;;1.23;;
59960;SDS011;55902;-37.980;-63.602;2023-11-21T08:37:28;2.20;;;1.20;;
59960;SDS011;55902;-37.980;-63.602;2023-11-21T08:39:57;2.45;;;1.20;;
59960;SDS011;55902;-37.980;-63.602;2023-11-21T08:42:27;2.75;;;1.27;;
59960;SDS011;55902;-37.980;-63.602;2023-11-21T08:44:55;3.33;;;1.20;;
59960;SDS011;55902;-37.980;-63.602;2023-11-21T08:47:25;1.60;;;1.30;;
59960;SDS011;55902;-37.980;-63.602;2023-11-21T08:59:58;2.50;;;1.30;;
59960;SDS011;55902;-37.980;-63.602;2023-11-21T09:02:25;5.05;;;1.50;;
59960;SDS011;55902;-37.980;-63.602;2023-11-21T09:04:52;4.78;;;1.40;;
59960;SDS011;55902;-37.980;-63.602;2023-11-21T09:07:19;5.72;;;1.30;;
59960;SDS011;55902;-37.980;-63.602;2023-11-21T09:09:47;4.57;;;1.55;;
59960;SDS011;55902;-37.980;-63.602;2023-11-21T09:12:15;3.95;;;1.45;;
59960;SDS011;55902;-37.980;-63.602;2023-11-21T09:14:42;3.95;;;1.20;;
59960;SDS011;55902;-37.980;-63.602;2023-11-21T09:17:09;4.85;;;1.30;;
59960;SDS011;55902;-37.980;-63.602;2023-11-21T09:19:37;3.33;;;1.25;;
59960;SDS011;55902;-37.980;-63.602;2023-11-21T09:22:04;3.05;;;1.30;;
59960;SDS011;55902;-37.980;-63.602;2023-11-21T09:24:32;3.63;;;1.40;;
59960;SDS011;55902;-37.980;-63.602;2023-11-21T09:26:59;3.15;;;1.30;;
59960;SDS011;55902;-37.980;-63.602;2023-11-21T09:29:26;4.63;;;1.52;;
59960;SDS011;55902;-37.980;-63.602;2023-11-21T09:31:54;2.33;;;1.70;;
59960;SDS011;55902;-37.980;-63.602;2023-11-21T09:34:25;1.75;;;1.40;;
59960;SDS011;55902;-37.980;-63.602;2023-11-21T09:36:58;3.15;;;1.48;;
59960;SDS011;55902;-37.980;-63.602;2023-11-21T09:39:27;3.95;;;1.50;;
59960;SDS011;55902;-37.980;-63.602;2023-11-21T09:41:58;5.03;;;1.45;;
59960;SDS011;55902;-37.980;-63.602;2023-11-21T09:44:32;4.57;;;1.50;;
59960;SDS011;55902;-37.980;-63.602;2023-11-21T09:47:07;2.35;;;1.30;;
59960;SDS011;55902;-37.980;-63.602;2023-11-21T09:49:37;2.28;;;1.38;;
59960;SDS011;55902;-37.980;-63.602;2023-11-21T09:52:06;3.47;;;1.33;;
59960;SDS011;55902;-37.980;-63.602;2023-11-21T09:54:41;2.70;;;1.38;;
59960;SDS011;55902;-37.980;-63.602;2023-11-21T09:57:08;2.60;;;1.30;;
59960;SDS011;55902;-37.980;-63.602;2023-11-21T09:59:39;1.83;;;1.40;;
59960;SDS011;55902;-37.980;-63.602;2023-11-21T10:02:08;3.42;;;1.38;;
59960;SDS011;55902;-37.980;-63.602;2023-11-21T10:04:40;3.33;;;1.40;;
59960;SDS011;55902;-37.980;-63.602;2023-11-21T10:07:08;3.85;;;1.40;;
59960;SDS011;55902;-37.980;-63.602;2023-11-21T10:09:36;2.00;;;1.25;;
59960;SDS011;55902;-37.980;-63.602;2023-11-21T10:12:04;2.95;;;1.30;;
59960;SDS011;55902;-37.980;-63.602;2023-11-21T10:14:34;3.75;;;1.40;;
59960;SDS011;55902;-37.980;-63.602;2023-11-21T10:17:06;2.13;;;1.30;;
59960;SDS011;55902;-37.980;-63.602;2023-11-21T10:19:41;2.05;;;1.20;;
59960;SDS011;55902;-37.980;-63.602;2023-11-21T10:22:09;2.47;;;1.30;;
59960;SDS011;55902;-37.980;-63.602;2023-11-21T10:24:36;2.42;;;1.20;;
59960;SDS011;55902;-37.980;-63.602;2023-11-21T10:27:06;5.68;;;1.40;;
59960;SDS011;55902;-37.980;-63.602;2023-11-21T10:29:34;3.97;;;1.23;;
59960;SDS011;55902;-37.980;-63.602;2023-11-21T10:32:04;5.47;;;1.30;;
59960;SDS011;55902;-37.980;-63.602;2023-11-21T10:34:32;4.50;;;1.20;;
59960;SDS011;55902;-37.980;-63.602;2023-11-21T10:37:10;2.08;;;1.20;;
59960;SDS011;55902;-37.980;-63.602;2023-11-21T10:39:38;4.00;;;1.20;;
59960;SDS011;55902;-37.980;-63.602;2023-11-21T10:42:08;3.78;;;1.20;;
59960;SDS011;55902;-37.980;-63.602;2023-11-21T10:44:38;3.08;;;1.20;;
59960;SDS011;55902;-37.980;-63.602;2023-11-21T10:47:10;2.42;;;1.10;;
59960;SDS011;55902;-37.980;-63.602;2023-11-21T10:49:38;4.32;;;1.50;;
59960;SDS011;55902;-37.980;-63.602;2023-11-21T10:52:06;5.25;;;1.20;;
59960;SDS011;55902;-37.980;-63.602;2023-11-21T10:54:34;4.55;;;1.20;;
59960;SDS011;55902;-37.980;-63.602;2023-11-21T10:57:04;3.58;;;1.10;;
59960;SDS011;55902;-37.980;-63.602;2023-11-21T10:59:32;2.63;;;1.05;;
59960;SDS011;55902;-37.980;-63.602;2023-11-21T11:02:07;4.40;;;1.20;;
59960;SDS011;55902;-37.980;-63.602;2023-11-21T11:05:03;3.60;;;1.13;;
59960;SDS011;55902;-37.980;-63.602;2023-11-21T11:07:37;3.15;;;1.30;;
59960;SDS011;55902;-37.980;-63.602;2023-11-21T11:10:08;2.22;;;1.20;;
59960;SDS011;55902;-37.980;-63.602;2023-11-21T11:12:43;1.70;;;1.10;;
59960;SDS011;55902;-37.980;-63.602;2023-11-21T11:15:13;2.70;;;1.33;;
59960;SDS011;55902;-37.980;-63.602;2023-11-21T11:17:41;2.03;;;1.05;;
59960;SDS011;55902;-37.980;-63.602;2023-11-21T11:20:11;2.50;;;1.10;;
59960;SDS011;55902;-37.980;-63.602;2023-11-21T11:22:44;3.10;;;1.00;;
59960;SDS011;55902;-37.980;-63.602;2023-11-21T11:28:20;3.70;;;1.20;;
59960;SDS011;55902;-37.980;-63.602;2023-11-21T11:37:05;3.70;;;1.20;;
59960;SDS011;55902;-37.980;-63.602;2023-11-21T11:39:39;4.57;;;1.20;;
59960;SDS011;55902;-37.980;-63.602;2023-11-21T11:42:14;3.47;;;1.02;;
59960;SDS011;55902;-37.980;-63.602;2023-11-21T11:47:15;4.88;;;1.60;;
59960;SDS011;55902;-37.980;-63.602;2023-11-21T11:52:46;3.40;;;1.10;;
59960;SDS011;55902;-37.980;-63.602;2023-11-21T11:55:17;3.53;;;0.95;;
59960;SDS011;55902;-37.980;-63.602;2023-11-21T11:57:47;1.90;;;0.80;;
59960;SDS011;55902;-37.980;-63.602;2023-11-21T12:00:21;3.08;;;0.73;;
59960;SDS011;55902;-37.980;-63.602;2023-11-21T12:02:57;2.58;;;0.82;;
59960;SDS011;55902;-37.980;-63.602;2023-11-21T12:05:37;2.75;;;1.10;;
59960;SDS011;55902;-37.980;-63.602;2023-11-21T12:08:13;2.97;;;0.80;;
59960;SDS011;55902;-37.980;-63.602;2023-11-21T12:10:46;2.90;;;0.80;;
59960;SDS011;55902;-37.980;-63.602;2023-11-21T12:13:19;5.43;;;1.10;;
59960;SDS011;55902;-37.980;-63.602;2023-11-21T12:15:48;1.65;;;0.70;;
59960;SDS011;55902;-37.980;-63.602;2023-11-21T12:18:16;6.47;;;1.00;;
59960;SDS011;55902;-37.980;-63.602;2023-11-21T12:20:43;3.67;;;0.85;;
59960;SDS011;55902;-37.980;-63.602;2023-11-21T12:23:14;3.25;;;0.90;;
59960;SDS011;55902;-37.980;-63.602;2023-11-21T12:25:42;3.58;;;0.90;;
59960;SDS011;55902;-37.980;-63.602;2023-11-21T12:28:10;2.75;;;0.75;;
59960;SDS011;55902;-37.980;-63.602;2023-11-21T12:30:37;8.20;;;0.90;;
59960;SDS011;55902;-37.980;-63.602;2023-11-21T12:33:05;5.53;;;0.80;;
59960;SDS011;55902;-37.980;-63.602;2023-11-21T12:35:37;1.83;;;0.60;;
59960;SDS011;55902;-37.980;-63.602;2023-11-21T12:38:09;4.78;;;0.70;;
59960;SDS011;55902;-37.980;-63.602;2023-11-21T12:40:37;4.95;;;0.70;;
59960;SDS011;55902;-37.980;-63.602;2023-11-21T12:43:06;2.20;;;0.70;;
59960;SDS011;55902;-37.980;-63.602;2023-11-21T12:45:35;3.58;;;0.65;;
59960;SDS011;55902;-37.980;-63.602;2023-11-21T12:48:04;9.18;;;1.00;;
59960;SDS011;55902;-37.980;-63.602;2023-11-21T12:50:38;3.80;;;1.00;;
59960;SDS011;55902;-37.980;-63.602;2023-11-21T12:53:13;7.43;;;1.55;;
59960;SDS011;55902;-37.980;-63.602;2023-11-21T12:55:43;7.85;;;1.15;;
59960;SDS011;55902;-37.980;-63.602;2023-11-21T12:58:17;8.15;;;1.17;;
59960;SDS011;55902;-37.980;-63.602;2023-11-21T13:00:47;7.65;;;0.95;;
59960;SDS011;55902;-37.980;-63.602;2023-11-21T13:03:25;5.93;;;0.80;;
59960;SDS011;55902;-37.980;-63.602;2023-11-21T13:05:56;5.50;;;0.80;;
59960;SDS011;55902;-37.980;-63.602;2023-11-21T13:08:24;6.65;;;0.90;;
59960;SDS011;55902;-37.980;-63.602;2023-11-21T13:10:56;16.15;;;1.50;;
59960;SDS011;55902;-37.980;-63.602;2023-11-21T13:13:29;11.60;;;1.00;;
59960;SDS011;55902;-37.980;-63.602;2023-11-21T13:16:00;8.52;;;0.90;;
59960;SDS011;55902;-37.980;-63.602;2023-11-21T13:18:31;6.35;;;1.08;;
59960;SDS011;55902;-37.980;-63.602;2023-11-21T13:20:59;3.65;;;0.82;;
59960;SDS011;55902;-37.980;-63.602;2023-11-21T13:23:37;4.35;;;0.73;;
59960;SDS011;55902;-37.980;-63.602;2023-11-21T13:26:06;3.65;;;0.70;;
59960;SDS011;55902;-37.980;-63.602;2023-11-21T13:28:34;3.83;;;0.60;;
59960;SDS011;55902;-37.980;-63.602;2023-11-21T13:31:03;6.65;;;1.00;;
59960;SDS011;55902;-37.980;-63.602;2023-11-21T13:33:49;4.35;;;0.70;;
59960;SDS011;55902;-37.980;-63.602;2023-11-21T13:36:23;6.90;;;1.23;;
59960;SDS011;55902;-37.980;-63.602;2023-11-21T13:38:56;9.27;;;1.10;;
59960;SDS011;55902;-37.980;-63.602;2023-11-21T13:41:24;11.60;;;1.30;;
59960;SDS011;55902;-37.980;-63.602;2023-11-21T13:43:56;5.95;;;0.80;;
59960;SDS011;55902;-37.980;-63.602;2023-11-21T13:46:41;7.38;;;0.85;;
59960;SDS011;55902;-37.980;-63.602;2023-11-21T13:49:08;7.05;;;0.82;;
59960;SDS011;55902;-37.980;-63.602;2023-11-21T13:51:36;2.63;;;0.60;;
59960;SDS011;55902;-37.980;-63.602;2023-11-21T13:54:08;1.67;;;0.50;;
59960;SDS011;55902;-37.980;-63.602;2023-11-21T13:56:39;6.15;;;0.80;;
59960;SDS011;55902;-37.980;-63.602;2023-11-21T13:59:15;7.40;;;1.02;;
59960;SDS011;55902;-37.980;-63.602;2023-11-21T14:01:53;3.10;;;0.80;;
59960;SDS011;55902;-37.980;-63.602;2023-11-21T14:04:21;5.32;;;0.90;;
59960;SDS011;55902;-37.980;-63.602;2023-11-21T14:07:05;4.60;;;0.70;;
59960;SDS011;55902;-37.980;-63.602;2023-11-21T14:10:12;5.10;;;0.93;;
59960;SDS011;55902;-37.980;-63.602;2023-11-21T14:12:47;3.95;;;0.90;;
59960;SDS011;55902;-37.980;-63.602;2023-11-21T14:15:17;2.38;;;0.60;;
59960;SDS011;55902;-37.980;-63.602;2023-11-21T14:17:52;3.83;;;0.80;;
59960;SDS011;55902;-37.980;-63.602;2023-11-21T14:20:20;7.30;;;0.95;;
59960;SDS011;55902;-37.980;-63.602;2023-11-21T14:22:48;3.85;;;1.02;;
59960;SDS011;55902;-37.980;-63.602;2023-11-21T14:25:18;5.55;;;0.88;;
59960;SDS011;55902;-37.980;-63.602;2023-11-21T14:27:47;6.30;;;0.80;;
59960;SDS011;55902;-37.980;-63.602;2023-11-21T14:30:19;2.45;;;0.60;;
59960;SDS011;55902;-37.980;-63.602;2023-11-21T14:32:48;1.88;;;0.60;;
59960;SDS011;55902;-37.980;-63.602;2023-11-21T14:35:15;5.43;;;0.80;;
59960;SDS011;55902;-37.980;-63.602;2023-11-21T14:37:46;2.85;;;0.60;;
59960;SDS011;55902;-37.980;-63.602;2023-11-21T14:40:13;3.55;;;0.60;;
59960;SDS011;55902;-37.980;-63.602;2023-11-21T14:42:52;5.38;;;0.95;;
59960;SDS011;55902;-37.980;-63.602;2023-11-21T14:45:23;3.28;;;0.80;;
59960;SDS011;55902;-37.980;-63.602;2023-11-21T14:47:55;3.58;;;0.70;;
59960;SDS011;55902;-37.980;-63.602;2023-11-21T14:50:35;3.75;;;0.60;;
59960;SDS011;55902;-37.980;-63.602;2023-11-21T14:53:11;2.53;;;0.60;;
59960;SDS011;55902;-37.980;-63.602;2023-11-21T14:55:48;4.25;;;0.60;;
59960;SDS011;55902;-37.980;-63.602;2023-11-21T14:58:23;2.35;;;0.80;;
59960;SDS011;55902;-37.980;-63.602;2023-11-21T15:00:56;3.40;;;0.70;;
59960;SDS011;55902;-37.980;-63.602;2023-11-21T15:03:32;2.25;;;0.50;;
59960;SDS011;55902;-37.980;-63.602;2023-11-21T15:06:03;5.38;;;0.80;;
59960;SDS011;55902;-37.980;-63.602;2023-11-21T15:09:09;5.60;;;0.80;;
59960;SDS011;55902;-37.980;-63.602;2023-11-21T15:11:45;2.25;;;1.17;;
59960;SDS011;55902;-37.980;-63.602;2023-11-21T15:14:24;2.00;;;0.80;;